createdAt,value
2018-09-11T00:00:25.237Z,18.03
2018-09-11T00:01:25.240Z,18.03
2018-09-11T00:02:25.242Z,18.03
2018-09-11T00:03:25.239Z,18.00
2018-09-11T00:04:25.240Z,17.95
2018-09-11T00:05:25.240Z,18.03
2018-09-11T00:06:25.248Z,18.10
2018-09-11T00:07:25.240Z,18.07
2018-09-11T00:08:25.249Z,18.08
2018-09-11T00:09:25.240Z,18.13
2018-09-11T00:10:25.242Z,18.16
2018-09-11T00:11:25.243Z,18.07
2018-09-11T00:12:25.242Z,18.07
2018-09-11T00:13:25.241Z,18.13
2018-09-11T00:14:25.238Z,18.10
2018-09-11T00:15:25.242Z,18.00
2018-09-11T00:16:25.244Z,17.98
2018-09-11T00:17:25.248Z,18.00
2018-09-11T00:18:26.038Z,18.01
2018-09-11T00:19:25.244Z,18.15
2018-09-11T00:20:25.245Z,18.03
2018-09-11T00:21:25.249Z,18.03
2018-09-11T00:22:25.250Z,18.01
2018-09-11T00:23:25.249Z,18.03
2018-09-11T00:24:25.248Z,18.03
2018-09-11T00:25:25.253Z,18.10
2018-09-11T00:26:25.249Z,18.07
2018-09-11T00:27:25.249Z,18.04
2018-09-11T00:28:25.255Z,17.98
2018-09-11T00:29:25.247Z,18.03
2018-09-11T00:30:25.250Z,18.03
2018-09-11T00:31:25.250Z,18.03
2018-09-11T00:32:25.250Z,18.03
2018-09-11T00:33:25.250Z,18.00
2018-09-11T00:34:25.286Z,17.97
2018-09-11T00:35:25.250Z,17.95
2018-09-11T00:36:25.255Z,17.95
2018-09-11T00:37:25.255Z,17.90
2018-09-11T00:38:25.253Z,17.85
2018-09-11T00:39:25.257Z,17.86
2018-09-11T00:40:25.255Z,17.90
2018-09-11T00:41:25.253Z,17.97
2018-09-11T00:42:25.253Z,17.98
2018-09-11T00:43:25.254Z,17.94
2018-09-11T00:44:25.257Z,17.95
2018-09-11T00:45:25.252Z,18.00
2018-09-11T00:46:25.255Z,17.92
2018-09-11T00:47:25.254Z,17.87
2018-09-11T00:48:25.253Z,17.92
2018-09-11T00:49:25.257Z,17.87
2018-09-11T00:50:25.255Z,17.86
2018-09-11T00:51:25.255Z,17.87
2018-09-11T00:52:25.257Z,17.83
2018-09-11T00:53:25.258Z,17.80
2018-09-11T00:54:25.258Z,17.85
2018-09-11T00:55:25.256Z,17.80
2018-09-11T00:56:25.257Z,17.72
2018-09-11T00:57:25.973Z,17.74
2018-09-11T00:58:25.257Z,17.70
2018-09-11T00:59:25.258Z,17.78
2018-09-11T01:00:25.265Z,17.71
2018-09-11T01:01:25.311Z,17.71
2018-09-11T01:02:25.259Z,17.70
2018-09-11T01:03:25.258Z,17.71
2018-09-11T01:04:25.262Z,17.82
2018-09-11T01:05:25.260Z,17.72
2018-09-11T01:06:25.260Z,17.78
2018-09-11T01:07:25.261Z,17.74
2018-09-11T01:08:25.259Z,17.76
2018-09-11T01:09:25.262Z,17.83
2018-09-11T01:10:25.270Z,17.82
2018-09-11T01:11:25.257Z,17.89
2018-09-11T01:12:25.262Z,17.83
2018-09-11T01:13:25.261Z,17.89
2018-09-11T01:14:25.260Z,17.89
2018-09-11T01:15:25.265Z,17.85
2018-09-11T01:16:25.261Z,17.76
2018-09-11T01:17:25.264Z,17.83
2018-09-11T01:18:25.261Z,17.79
2018-09-11T01:19:25.263Z,17.79
2018-09-11T01:20:25.270Z,17.76
2018-09-11T01:21:25.263Z,17.79
2018-09-11T01:22:25.260Z,17.82
2018-09-11T01:23:25.264Z,17.78
2018-09-11T01:24:25.263Z,17.79
2018-09-11T01:25:25.262Z,17.80
2018-09-11T01:26:25.263Z,17.80
2018-09-11T01:27:25.265Z,17.78
2018-09-11T01:28:25.264Z,17.71
2018-09-11T01:29:25.262Z,17.72
2018-09-11T01:30:25.265Z,17.71
2018-09-11T01:31:25.266Z,17.67
2018-09-11T01:32:25.263Z,17.56
2018-09-11T01:33:25.986Z,17.67
2018-09-11T01:34:25.266Z,17.72
2018-09-11T01:35:25.263Z,17.67
2018-09-11T01:36:25.264Z,17.60
2018-09-11T01:37:25.259Z,17.60
2018-09-11T01:38:25.264Z,17.67
2018-09-11T01:39:25.267Z,17.59
2018-09-11T01:40:25.266Z,17.59
2018-09-11T01:41:25.266Z,17.68
2018-09-11T01:42:25.266Z,17.68
2018-09-11T01:43:25.268Z,17.64
2018-09-11T01:44:25.265Z,17.57
2018-09-11T01:45:25.266Z,17.72
2018-09-11T01:46:25.987Z,17.63
2018-09-11T01:47:25.270Z,17.70
2018-09-11T01:48:25.266Z,17.65
2018-09-11T01:49:25.266Z,17.67
2018-09-11T01:50:25.267Z,17.74
2018-09-11T01:51:25.993Z,17.67
2018-09-11T01:52:25.266Z,17.67
2018-09-11T01:53:25.268Z,17.59
2018-09-11T01:54:25.268Z,17.59
2018-09-11T01:55:25.266Z,17.60
2018-09-11T01:56:25.265Z,17.68
2018-09-11T01:57:25.269Z,17.63
2018-09-11T01:58:25.269Z,17.68
2018-09-11T01:59:25.267Z,17.56
2018-09-11T02:00:25.268Z,17.51
2018-09-11T02:01:25.272Z,17.68
2018-09-11T02:02:25.270Z,17.65
2018-09-11T02:03:25.269Z,17.56
2018-09-11T02:04:25.269Z,17.64
2018-09-11T02:05:25.266Z,17.57
2018-09-11T02:06:25.268Z,17.56
2018-09-11T02:07:25.269Z,17.65
2018-09-11T02:08:25.270Z,17.63
2018-09-11T02:09:25.270Z,17.64
2018-09-11T02:10:25.271Z,17.59
2018-09-11T02:11:25.269Z,17.63
2018-09-11T02:12:25.272Z,17.52
2018-09-11T02:13:25.269Z,17.59
2018-09-11T02:14:25.273Z,17.59
2018-09-11T02:15:25.269Z,17.57
2018-09-11T02:16:25.274Z,17.67
2018-09-11T02:17:25.269Z,17.52
2018-09-11T02:18:25.272Z,17.52
2018-09-11T02:19:25.271Z,17.49
2018-09-11T02:20:25.270Z,17.59
2018-09-11T02:21:25.272Z,17.52
2018-09-11T02:22:25.273Z,17.46
2018-09-11T02:23:25.271Z,17.48
2018-09-11T02:24:25.291Z,17.49
2018-09-11T02:25:25.271Z,17.54
2018-09-11T02:26:25.273Z,17.49
2018-09-11T02:27:25.275Z,17.46
2018-09-11T02:28:25.272Z,17.46
2018-09-11T02:29:25.272Z,17.49
2018-09-11T02:30:25.274Z,17.52
2018-09-11T02:31:25.273Z,17.51
2018-09-11T02:32:25.277Z,17.39
2018-09-11T02:33:25.274Z,17.49
2018-09-11T02:34:25.275Z,17.46
2018-09-11T02:35:25.274Z,17.51
2018-09-11T02:36:25.274Z,17.49
2018-09-11T02:37:25.274Z,17.49
2018-09-11T02:38:25.275Z,17.42
2018-09-11T02:39:25.276Z,17.59
2018-09-11T02:40:25.276Z,17.56
2018-09-11T02:41:25.275Z,17.54
2018-09-11T02:42:25.281Z,17.56
2018-09-11T02:43:25.275Z,17.52
2018-09-11T02:44:25.278Z,17.54
2018-09-11T02:45:25.275Z,17.56
2018-09-11T02:46:25.275Z,17.51
2018-09-11T02:47:25.275Z,17.51
2018-09-11T02:48:25.277Z,17.54
2018-09-11T02:49:25.281Z,17.39
2018-09-11T02:50:25.281Z,17.45
2018-09-11T02:51:25.274Z,17.42
2018-09-11T02:52:25.272Z,17.42
2018-09-11T02:53:25.271Z,17.41
2018-09-11T02:54:25.278Z,17.41
2018-09-11T02:55:25.273Z,17.41
2018-09-11T02:56:25.280Z,17.49
2018-09-11T02:57:25.275Z,17.51
2018-09-11T02:58:25.276Z,17.45
2018-09-11T02:59:25.287Z,17.46
2018-09-11T03:00:25.278Z,17.45
2018-09-11T03:01:25.277Z,17.46
2018-09-11T03:02:25.275Z,17.49
2018-09-11T03:03:25.274Z,17.54
2018-09-11T03:04:25.278Z,17.44
2018-09-11T03:05:25.284Z,17.49
2018-09-11T03:06:25.274Z,17.49
2018-09-11T03:07:25.275Z,17.56
2018-09-11T03:08:25.277Z,17.49
2018-09-11T03:09:25.275Z,17.57
2018-09-11T03:10:25.275Z,17.49
2018-09-11T03:11:25.272Z,17.57
2018-09-11T03:12:25.277Z,17.49
2018-09-11T03:13:25.276Z,17.49
2018-09-11T03:14:25.310Z,17.64
2018-09-11T03:15:25.278Z,17.52
2018-09-11T03:16:25.277Z,17.60
2018-09-11T03:17:25.291Z,17.49
2018-09-11T03:18:25.280Z,17.52
2018-09-11T03:19:25.281Z,17.46
2018-09-11T03:20:26.019Z,17.64
2018-09-11T03:21:25.279Z,17.56
2018-09-11T03:22:25.277Z,17.60
2018-09-11T03:23:25.275Z,17.60
2018-09-11T03:24:25.276Z,17.65
2018-09-11T03:25:25.277Z,17.57
2018-09-11T03:26:25.278Z,17.49
2018-09-11T03:27:25.280Z,17.49
2018-09-11T03:28:25.277Z,17.54
2018-09-11T03:29:25.278Z,17.51
2018-09-11T03:30:25.278Z,17.46
2018-09-11T03:31:25.279Z,17.45
2018-09-11T03:32:25.281Z,17.31
2018-09-11T03:33:25.277Z,17.27
2018-09-11T03:34:25.278Z,17.29
2018-09-11T03:35:25.277Z,17.29
2018-09-11T03:36:25.284Z,17.26
2018-09-11T03:37:25.277Z,17.22
2018-09-11T03:38:25.277Z,17.23
2018-09-11T03:39:25.283Z,17.29
2018-09-11T03:40:25.278Z,17.24
2018-09-11T03:41:25.275Z,17.30
2018-09-11T03:42:25.276Z,17.30
2018-09-11T03:43:25.276Z,17.27
2018-09-11T03:44:25.275Z,17.31
2018-09-11T03:45:25.276Z,17.24
2018-09-11T03:46:25.281Z,17.31
2018-09-11T03:47:25.277Z,17.24
2018-09-11T03:48:25.274Z,17.33
2018-09-11T03:49:25.277Z,17.33
2018-09-11T03:50:25.285Z,17.30
2018-09-11T03:51:25.279Z,17.29
2018-09-11T03:52:25.277Z,17.42
2018-09-11T03:53:25.275Z,17.29
2018-09-11T03:54:25.282Z,17.31
2018-09-11T03:55:25.282Z,17.34
2018-09-11T03:56:25.277Z,17.27
2018-09-11T03:57:25.275Z,17.30
2018-09-11T03:58:25.276Z,17.27
2018-09-11T03:59:25.365Z,17.41
2018-09-11T04:00:25.277Z,17.44
2018-09-11T04:01:25.280Z,17.51
2018-09-11T04:02:25.279Z,17.45
2018-09-11T04:03:25.281Z,17.45
2018-09-11T04:04:25.278Z,17.42
2018-09-11T04:05:25.319Z,17.45
2018-09-11T04:06:25.279Z,17.34
2018-09-11T04:07:25.281Z,17.30
2018-09-11T04:08:25.278Z,17.27
2018-09-11T04:09:25.289Z,17.30
2018-09-11T04:10:25.277Z,17.30
2018-09-11T04:11:25.276Z,17.27
2018-09-11T04:12:25.278Z,17.44
2018-09-11T04:13:25.274Z,17.39
2018-09-11T04:14:25.280Z,17.39
2018-09-11T04:15:25.278Z,17.33
2018-09-11T04:16:25.281Z,17.41
2018-09-11T04:17:25.280Z,17.30
2018-09-11T04:18:25.285Z,17.33
2018-09-11T04:19:25.281Z,17.41
2018-09-11T04:20:25.279Z,17.29
2018-09-11T04:21:25.281Z,17.39
2018-09-11T04:22:25.279Z,17.41
2018-09-11T04:23:25.277Z,17.31
2018-09-11T04:24:25.277Z,17.38
2018-09-11T04:25:25.279Z,17.38
2018-09-11T04:26:25.281Z,17.44
2018-09-11T04:27:25.279Z,17.39
2018-09-11T04:28:25.276Z,17.42
2018-09-11T04:29:25.314Z,17.42
2018-09-11T04:30:25.280Z,17.39
2018-09-11T04:31:25.280Z,17.42
2018-09-11T04:32:25.280Z,17.39
2018-09-11T04:33:25.279Z,17.44
2018-09-11T04:34:25.280Z,17.48
2018-09-11T04:35:25.278Z,17.48
2018-09-11T04:36:25.355Z,17.52
2018-09-11T04:37:25.282Z,17.52
2018-09-11T04:38:25.280Z,17.49
2018-09-11T04:39:25.278Z,17.59
2018-09-11T04:40:25.278Z,17.57
2018-09-11T04:41:25.278Z,17.59
2018-09-11T04:42:25.284Z,17.56
2018-09-11T04:43:25.281Z,17.52
2018-09-11T04:44:25.278Z,17.54
2018-09-11T04:45:25.282Z,17.60
2018-09-11T04:46:25.280Z,17.54
2018-09-11T04:47:25.279Z,17.63
2018-09-11T04:48:25.281Z,17.48
2018-09-11T04:49:25.280Z,17.51
2018-09-11T04:50:25.281Z,17.63
2018-09-11T04:51:25.282Z,17.64
2018-09-11T04:52:25.282Z,17.54
2018-09-11T04:53:25.288Z,17.56
2018-09-11T04:54:25.280Z,17.65
2018-09-11T04:55:25.283Z,17.64
2018-09-11T04:56:25.280Z,17.65
2018-09-11T04:57:25.275Z,17.70
2018-09-11T04:58:25.280Z,17.70
2018-09-11T04:59:25.279Z,17.65
2018-09-11T05:00:25.281Z,17.67
2018-09-11T05:01:25.281Z,17.71
2018-09-11T05:02:25.283Z,17.67
2018-09-11T05:03:25.281Z,17.67
2018-09-11T05:04:25.282Z,17.74
2018-09-11T05:05:25.282Z,17.65
2018-09-11T05:06:25.283Z,17.70
2018-09-11T05:07:25.282Z,17.67
2018-09-11T05:08:25.282Z,17.70
2018-09-11T05:09:25.288Z,17.72
2018-09-11T05:10:25.282Z,17.72
2018-09-11T05:11:25.285Z,17.82
2018-09-11T05:12:25.282Z,17.85
2018-09-11T05:13:25.283Z,17.86
2018-09-11T05:14:25.283Z,17.90
2018-09-11T05:15:25.283Z,17.86
2018-09-11T05:16:25.284Z,17.92
2018-09-11T05:17:25.282Z,17.94
2018-09-11T05:18:25.283Z,17.94
2018-09-11T05:19:25.286Z,18.01
2018-09-11T05:20:25.282Z,18.03
2018-09-11T05:21:25.288Z,18.07
2018-09-11T05:22:25.285Z,17.98
2018-09-11T05:23:25.284Z,18.08
2018-09-11T05:24:25.288Z,18.18
2018-09-11T05:25:25.283Z,18.15
2018-09-11T05:26:25.289Z,18.15
2018-09-11T05:27:26.116Z,18.16
2018-09-11T05:28:25.284Z,18.26
2018-09-11T05:29:25.285Z,18.34
2018-09-11T05:30:25.287Z,18.26
2018-09-11T05:31:25.286Z,18.31
2018-09-11T05:32:25.285Z,18.28
2018-09-11T05:33:25.286Z,18.31
2018-09-11T05:34:25.288Z,18.28
2018-09-11T05:35:25.318Z,18.33
2018-09-11T05:36:25.286Z,18.35
2018-09-11T05:37:25.287Z,18.34
2018-09-11T05:38:25.286Z,18.35
2018-09-11T05:39:25.293Z,18.37
2018-09-11T05:40:25.297Z,18.28
2018-09-11T05:41:25.286Z,18.35
2018-09-11T05:42:25.286Z,18.49
2018-09-11T05:43:25.291Z,18.56
2018-09-11T05:44:25.290Z,18.56
2018-09-11T05:45:25.289Z,18.58
2018-09-11T05:46:25.290Z,18.62
2018-09-11T05:47:25.289Z,18.63
2018-09-11T05:48:25.290Z,18.75
2018-09-11T05:49:25.292Z,18.71
2018-09-11T05:50:25.297Z,18.75
2018-09-11T05:51:25.290Z,18.75
2018-09-11T05:52:25.291Z,18.78
2018-09-11T05:53:25.291Z,18.89
2018-09-11T05:54:25.292Z,18.84
2018-09-11T05:55:25.291Z,18.90
2018-09-11T05:56:25.302Z,18.88
2018-09-11T05:57:25.293Z,18.92
2018-09-11T05:58:25.296Z,18.93
2018-09-11T05:59:25.297Z,18.89
2018-09-11T06:00:25.294Z,18.90
2018-09-11T06:01:25.295Z,18.99
2018-09-11T06:02:25.297Z,19.02
2018-09-11T06:03:25.293Z,19.00
2018-09-11T06:04:25.296Z,18.99
2018-09-11T06:05:25.301Z,18.98
2018-09-11T06:06:25.296Z,19.08
2018-09-11T06:07:25.302Z,18.99
2018-09-11T06:08:25.298Z,19.08
2018-09-11T06:09:25.300Z,19.09
2018-09-11T06:10:25.304Z,19.02
2018-09-11T06:11:25.304Z,19.04
2018-09-11T06:12:25.304Z,19.11
2018-09-11T06:13:25.300Z,19.08
2018-09-11T06:14:25.302Z,19.11
2018-09-11T06:15:25.303Z,19.11
2018-09-11T06:16:25.370Z,19.14
2018-09-11T06:17:25.303Z,19.15
2018-09-11T06:18:25.306Z,19.24
2018-09-11T06:19:25.299Z,19.24
2018-09-11T06:20:25.303Z,19.21
2018-09-11T06:21:25.306Z,19.26
2018-09-11T06:22:25.307Z,19.27
2018-09-11T06:23:25.307Z,19.33
2018-09-11T06:24:25.311Z,19.29
2018-09-11T06:25:25.317Z,19.31
2018-09-11T06:26:25.310Z,19.37
2018-09-11T06:27:25.308Z,19.37
2018-09-11T06:28:25.314Z,19.39
2018-09-11T06:29:25.315Z,19.48
2018-09-11T06:30:25.313Z,19.48
2018-09-11T06:31:25.308Z,19.54
2018-09-11T06:32:25.311Z,19.52
2018-09-11T06:33:25.316Z,19.63
2018-09-11T06:34:25.314Z,19.59
2018-09-11T06:35:25.354Z,19.71
2018-09-11T06:36:25.313Z,19.76
2018-09-11T06:37:25.315Z,19.77
2018-09-11T06:38:25.320Z,19.76
2018-09-11T06:39:25.318Z,19.66
2018-09-11T06:40:25.319Z,19.69
2018-09-11T06:41:25.321Z,19.66
2018-09-11T06:42:25.328Z,19.71
2018-09-11T06:43:25.321Z,19.67
2018-09-11T06:44:25.325Z,19.69
2018-09-11T06:45:25.323Z,19.73
2018-09-11T06:46:25.324Z,19.64
2018-09-11T06:47:25.325Z,19.76
2018-09-11T06:48:25.322Z,19.71
2018-09-11T06:49:25.323Z,19.88
2018-09-11T06:50:25.326Z,19.95
2018-09-11T06:51:25.329Z,19.92
2018-09-11T06:52:25.328Z,20.02
2018-09-11T06:53:25.324Z,20.02
2018-09-11T06:54:25.336Z,19.99
2018-09-11T06:55:25.330Z,20.14
2018-09-11T06:56:25.334Z,20.21
2018-09-11T06:57:25.338Z,20.24
2018-09-11T06:58:25.335Z,20.37
2018-09-11T06:59:25.335Z,20.50
2018-09-11T07:00:25.341Z,20.55
2018-09-11T07:01:25.336Z,20.65
2018-09-11T07:02:25.338Z,20.69
2018-09-11T07:03:25.337Z,20.77
2018-09-11T07:04:25.343Z,20.88
2018-09-11T07:05:25.339Z,20.90
2018-09-11T07:06:25.356Z,20.96
2018-09-11T07:07:25.342Z,21.05
2018-09-11T07:08:25.393Z,21.02
2018-09-11T07:09:25.345Z,21.15
2018-09-11T07:10:25.345Z,21.14
2018-09-11T07:11:25.348Z,21.21
2018-09-11T07:12:25.347Z,21.30
2018-09-11T07:13:25.348Z,21.42
2018-09-11T07:14:25.358Z,21.45
2018-09-11T07:15:25.351Z,21.48
2018-09-11T07:16:25.356Z,21.67
2018-09-11T07:17:25.358Z,21.91
2018-09-11T07:18:25.357Z,22.08
2018-09-11T07:19:25.367Z,22.15
2018-09-11T07:20:25.486Z,22.32
2018-09-11T07:21:25.364Z,22.44
2018-09-11T07:22:25.368Z,22.39
2018-09-11T07:23:25.370Z,22.88
2018-09-11T07:24:25.389Z,22.93
2018-09-11T07:25:25.364Z,22.93
2018-09-11T07:26:25.367Z,22.85
2018-09-11T07:27:25.370Z,22.81
2018-09-11T07:28:25.375Z,22.72
2018-09-11T07:29:25.377Z,22.65
2018-09-11T07:30:25.385Z,22.54
2018-09-11T07:31:25.428Z,22.60
2018-09-11T07:32:25.441Z,22.63
2018-09-11T07:33:25.386Z,22.65
2018-09-11T07:34:25.389Z,22.69
2018-09-11T07:35:25.387Z,22.55
2018-09-11T07:36:25.440Z,22.48
2018-09-11T07:37:25.394Z,22.62
2018-09-11T07:38:25.399Z,22.73
2018-09-11T07:39:25.400Z,22.85
2018-09-11T07:40:25.397Z,23.09
2018-09-11T07:41:25.401Z,23.28
2018-09-11T07:42:25.403Z,23.37
2018-09-11T07:43:25.407Z,23.39
2018-09-11T07:44:25.407Z,23.21
2018-09-11T07:45:25.443Z,23.37
2018-09-11T07:46:25.422Z,23.48
2018-09-11T07:47:25.414Z,23.55
2018-09-11T07:48:25.416Z,23.59
2018-09-11T07:49:25.424Z,23.76
2018-09-11T07:50:25.420Z,23.87
2018-09-11T07:51:25.424Z,24.14
2018-09-11T07:52:25.445Z,24.13
2018-09-11T07:53:25.437Z,23.98
2018-09-11T07:54:25.445Z,24.03
2018-09-11T07:55:25.435Z,23.91
2018-09-11T07:56:25.436Z,23.77
2018-09-11T07:57:25.493Z,23.68
2018-09-11T07:58:25.443Z,23.68
2018-09-11T07:59:25.470Z,23.48
2018-09-11T08:00:25.452Z,23.50
2018-09-11T08:01:25.453Z,23.37
2018-09-11T08:02:25.460Z,23.37
2018-09-11T08:03:25.457Z,23.25
2018-09-11T08:04:25.464Z,23.18
2018-09-11T08:05:25.469Z,23.12
2018-09-11T08:06:25.465Z,23.09
2018-09-11T08:07:25.469Z,23.06
2018-09-11T08:08:25.475Z,23.17
2018-09-11T08:09:25.525Z,23.03
2018-09-11T08:10:25.477Z,22.99
2018-09-11T08:11:25.484Z,23.05
2018-09-11T08:12:25.482Z,23.02
2018-09-11T08:13:25.498Z,23.12
2018-09-11T08:14:25.516Z,23.10
2018-09-11T08:15:25.490Z,23.12
2018-09-11T08:16:25.564Z,23.20
2018-09-11T08:17:25.496Z,23.12
2018-09-11T08:18:25.505Z,23.25
2018-09-11T08:19:25.510Z,23.44
2018-09-11T08:20:25.505Z,23.54
2018-09-11T08:21:25.505Z,23.77
2018-09-11T08:22:25.509Z,23.93
2018-09-11T08:23:25.517Z,23.74
2018-09-11T08:24:25.555Z,23.87
2018-09-11T08:25:25.519Z,23.95
2018-09-11T08:26:25.522Z,24.01
2018-09-11T08:27:25.526Z,23.87
2018-09-11T08:28:25.529Z,23.92
2018-09-11T08:29:25.549Z,23.86
2018-09-11T08:30:25.541Z,23.87
2018-09-11T08:31:25.540Z,23.77
2018-09-11T08:32:25.539Z,23.66
2018-09-11T08:33:25.542Z,23.63
2018-09-11T08:34:25.548Z,23.59
2018-09-11T08:35:25.552Z,23.56
2018-09-11T08:36:25.553Z,23.47
2018-09-11T08:37:25.562Z,23.46
2018-09-11T08:38:25.558Z,23.48
2018-09-11T08:39:25.557Z,23.37
2018-09-11T08:40:25.562Z,23.46
2018-09-11T08:41:25.591Z,23.44
2018-09-11T08:42:25.574Z,23.48
2018-09-11T08:43:25.572Z,23.59
2018-09-11T08:44:25.579Z,23.50
2018-09-11T08:45:25.577Z,23.47
2018-09-11T08:46:25.581Z,23.43
2018-09-11T08:47:25.582Z,23.50
2018-09-11T08:48:25.583Z,23.56
2018-09-11T08:49:25.590Z,23.61
2018-09-11T08:50:25.592Z,23.77
2018-09-11T08:51:25.593Z,23.63
2018-09-11T08:52:25.600Z,23.74
2018-09-11T08:53:25.606Z,23.66
2018-09-11T08:54:25.607Z,23.68
2018-09-11T08:55:25.605Z,23.73
2018-09-11T08:56:25.608Z,23.73
2018-09-11T08:57:25.612Z,23.66
2018-09-11T08:58:25.624Z,23.59
2018-09-11T08:59:25.617Z,23.65
2018-09-11T09:00:25.620Z,23.58
2018-09-11T09:01:25.625Z,23.59
2018-09-11T09:02:25.631Z,23.58
2018-09-11T09:03:25.635Z,23.54
2018-09-11T09:04:25.639Z,23.48
2018-09-11T09:05:25.635Z,23.48
2018-09-11T09:06:25.638Z,23.44
2018-09-11T09:07:25.641Z,23.58
2018-09-11T09:08:25.644Z,23.62
2018-09-11T09:09:25.649Z,23.71
2018-09-11T09:10:25.646Z,23.61
2018-09-11T09:11:25.650Z,23.63
2018-09-11T09:12:25.659Z,23.66
2018-09-11T09:13:25.657Z,23.77
2018-09-11T09:14:25.663Z,23.78
2018-09-11T09:15:25.670Z,23.76
2018-09-11T09:16:25.666Z,23.86
2018-09-11T09:17:25.669Z,23.78
2018-09-11T09:18:25.674Z,23.80
2018-09-11T09:19:25.675Z,23.86
2018-09-11T09:20:25.678Z,23.84
2018-09-11T09:21:25.683Z,24.01
2018-09-11T09:22:25.684Z,24.02
2018-09-11T09:23:25.686Z,23.99
2018-09-11T09:24:25.691Z,24.08
2018-09-11T09:25:25.697Z,24.14
2018-09-11T09:26:25.703Z,24.17
2018-09-11T09:27:25.721Z,24.16
2018-09-11T09:28:25.702Z,24.18
2018-09-11T09:29:25.717Z,24.43
2018-09-11T09:30:25.711Z,24.42
2018-09-11T09:31:25.709Z,24.55
2018-09-11T09:32:25.716Z,24.65
2018-09-11T09:33:25.717Z,24.85
2018-09-11T09:34:25.720Z,24.70
2018-09-11T09:35:25.724Z,24.65
2018-09-11T09:36:25.789Z,24.84
2018-09-11T09:37:25.726Z,24.84
2018-09-11T09:38:25.735Z,24.86
2018-09-11T09:39:25.736Z,24.65
2018-09-11T09:40:26.644Z,24.69
2018-09-11T09:41:25.747Z,24.86
2018-09-11T09:42:25.751Z,24.89
2018-09-11T09:43:25.753Z,24.96
2018-09-11T09:44:25.759Z,25.01
2018-09-11T09:45:25.760Z,25.03
2018-09-11T09:46:25.762Z,24.98
2018-09-11T09:47:25.762Z,24.88
2018-09-11T09:48:25.770Z,24.92
2018-09-11T09:49:25.777Z,24.86
2018-09-11T09:50:25.778Z,24.88
2018-09-11T09:51:25.782Z,24.69
2018-09-11T09:52:25.786Z,24.57
2018-09-11T09:53:25.787Z,24.55
2018-09-11T09:54:25.794Z,24.55
2018-09-11T09:55:25.794Z,24.45
2018-09-11T09:56:25.798Z,24.47
2018-09-11T09:57:25.803Z,24.53
2018-09-11T09:58:25.807Z,24.55
2018-09-11T09:59:25.806Z,24.54
2018-09-11T10:00:25.813Z,24.47
2018-09-11T10:01:25.817Z,24.47
2018-09-11T10:02:25.824Z,24.42
2018-09-11T10:03:25.826Z,24.45
2018-09-11T10:04:25.827Z,24.40
2018-09-11T10:05:25.834Z,24.35
2018-09-11T10:06:25.834Z,24.39
2018-09-11T10:07:25.833Z,24.45
2018-09-11T10:08:25.841Z,24.45
2018-09-11T10:09:25.843Z,24.43
2018-09-11T10:10:25.849Z,24.54
2018-09-11T10:11:25.848Z,24.51
2018-09-11T10:12:25.853Z,24.57
2018-09-11T10:13:25.860Z,24.54
2018-09-11T10:14:25.882Z,24.57
2018-09-11T10:15:25.865Z,24.58
2018-09-11T10:16:25.869Z,24.60
2018-09-11T10:17:25.874Z,24.57
2018-09-11T10:18:25.876Z,24.65
2018-09-11T10:19:25.878Z,24.70
2018-09-11T10:20:25.884Z,24.73
2018-09-11T10:21:25.891Z,24.70
2018-09-11T10:22:25.897Z,24.70
2018-09-11T10:23:25.894Z,24.69
2018-09-11T10:24:25.899Z,24.69
2018-09-11T10:25:25.904Z,24.74
2018-09-11T10:26:25.904Z,24.77
2018-09-11T10:27:25.948Z,24.81
2018-09-11T10:28:25.914Z,24.85
2018-09-11T10:29:25.916Z,24.81
2018-09-11T10:30:25.919Z,24.74
2018-09-11T10:31:25.964Z,24.88
2018-09-11T10:32:25.926Z,24.95
2018-09-11T10:33:25.926Z,24.98
2018-09-11T10:34:25.930Z,24.99
2018-09-11T10:35:25.935Z,24.99
2018-09-11T10:36:25.934Z,24.99
2018-09-11T10:37:25.939Z,25.04
2018-09-11T10:38:25.946Z,25.08
2018-09-11T10:39:25.969Z,25.08
2018-09-11T10:40:25.953Z,25.11
2018-09-11T10:41:25.952Z,25.11
2018-09-11T10:42:25.956Z,25.25
2018-09-11T10:43:25.958Z,25.26
2018-09-11T10:44:25.965Z,25.36
2018-09-11T10:45:25.965Z,25.36
2018-09-11T10:46:25.971Z,25.36
2018-09-11T10:47:25.978Z,25.36
2018-09-11T10:48:25.977Z,25.46
2018-09-11T10:49:25.983Z,25.44
2018-09-11T10:50:25.984Z,25.31
2018-09-11T10:51:25.987Z,25.32
2018-09-11T10:52:25.991Z,25.31
2018-09-11T10:53:25.997Z,25.35
2018-09-11T10:54:26.001Z,25.46
2018-09-11T10:55:26.006Z,25.60
2018-09-11T10:56:26.007Z,25.55
2018-09-11T10:57:26.008Z,25.59
2018-09-11T10:58:26.075Z,25.54
2018-09-11T10:59:26.017Z,25.65
2018-09-11T11:00:26.052Z,25.65
2018-09-11T11:01:26.024Z,25.75
2018-09-11T11:02:26.026Z,25.95
2018-09-11T11:03:26.034Z,26.00
2018-09-11T11:04:26.030Z,26.10
2018-09-11T11:05:26.036Z,26.15
2018-09-11T11:06:26.042Z,26.18
2018-09-11T11:07:26.048Z,26.33
2018-09-11T11:08:26.046Z,26.41
2018-09-11T11:09:26.058Z,26.45
2018-09-11T11:10:26.056Z,26.40
2018-09-11T11:11:26.056Z,26.37
2018-09-11T11:12:26.057Z,26.41
2018-09-11T11:13:26.063Z,26.26
2018-09-11T11:14:26.069Z,26.26
2018-09-11T11:15:26.074Z,26.31
2018-09-11T11:16:26.079Z,26.33
2018-09-11T11:17:26.091Z,26.51
2018-09-11T11:18:26.085Z,26.16
2018-09-11T11:19:26.092Z,26.15
2018-09-11T11:20:26.093Z,26.22
2018-09-11T11:21:26.094Z,26.28
2018-09-11T11:22:26.102Z,26.33
2018-09-11T11:23:26.105Z,26.25
2018-09-11T11:24:26.115Z,26.16
2018-09-11T11:25:26.112Z,26.10
2018-09-11T11:26:26.121Z,26.23
2018-09-11T11:27:26.120Z,26.18
2018-09-11T11:28:26.130Z,26.23
2018-09-11T11:29:26.138Z,26.34
2018-09-11T11:30:26.135Z,26.34
2018-09-11T11:31:26.757Z,26.31
2018-09-11T11:32:26.142Z,26.36
2018-09-11T11:33:26.144Z,26.18
2018-09-11T11:34:26.152Z,26.16
2018-09-11T11:35:26.155Z,26.13
2018-09-11T11:36:26.335Z,26.15
2018-09-11T11:37:26.377Z,26.13
2018-09-11T11:38:26.167Z,25.93
2018-09-11T11:39:26.172Z,25.98
2018-09-11T11:40:26.178Z,25.96
2018-09-11T11:41:26.183Z,25.90
2018-09-11T11:42:26.233Z,25.95
2018-09-11T11:43:26.186Z,25.95
2018-09-11T11:44:26.188Z,26.09
2018-09-11T11:45:26.195Z,26.33
2018-09-11T11:46:26.200Z,26.34
2018-09-11T11:47:26.204Z,26.41
2018-09-11T11:48:26.210Z,26.31
2018-09-11T11:49:26.214Z,26.37
2018-09-11T11:50:26.219Z,26.36
2018-09-11T11:51:26.218Z,26.29
2018-09-11T11:52:26.226Z,26.38
2018-09-11T11:53:26.234Z,26.44
2018-09-11T11:54:26.234Z,26.51
2018-09-11T11:55:26.274Z,26.66
2018-09-11T11:56:26.242Z,26.73
2018-09-11T11:57:26.245Z,26.77
2018-09-11T11:58:26.253Z,26.78
2018-09-11T11:59:26.260Z,26.77
2018-09-11T12:00:26.265Z,26.80
2018-09-11T12:01:26.284Z,26.78
2018-09-11T12:02:26.270Z,26.89
2018-09-11T12:03:26.273Z,26.81
2018-09-11T12:04:26.278Z,26.80
2018-09-11T12:05:26.284Z,26.63
2018-09-11T12:06:26.287Z,26.55
2018-09-11T12:07:26.293Z,26.53
2018-09-11T12:08:26.299Z,26.68
2018-09-11T12:09:26.301Z,26.56
2018-09-11T12:10:26.315Z,26.51
2018-09-11T12:11:26.309Z,26.36
2018-09-11T12:12:26.313Z,26.25
2018-09-11T12:13:26.316Z,26.25
2018-09-11T12:14:26.323Z,26.19
2018-09-11T12:15:26.327Z,26.18
2018-09-11T12:16:26.332Z,26.02
2018-09-11T12:17:26.333Z,26.09
2018-09-11T12:18:26.339Z,25.95
2018-09-11T12:19:26.352Z,25.96
2018-09-11T12:20:26.351Z,26.13
2018-09-11T12:21:26.354Z,26.10
2018-09-11T12:22:26.358Z,26.18
2018-09-11T12:23:26.364Z,26.09
2018-09-11T12:24:26.369Z,26.15
2018-09-11T12:25:26.414Z,26.19
2018-09-11T12:26:26.425Z,26.28
2018-09-11T12:27:26.423Z,26.36
2018-09-11T12:28:26.384Z,26.29
2018-09-11T12:29:26.388Z,26.43
2018-09-11T12:30:26.391Z,26.44
2018-09-11T12:31:26.397Z,26.55
2018-09-11T12:32:26.404Z,26.47
2018-09-11T12:33:26.406Z,26.53
2018-09-11T12:34:26.409Z,26.65
2018-09-11T12:35:26.416Z,26.60
2018-09-11T12:36:26.417Z,26.56
2018-09-11T12:37:26.423Z,26.53
2018-09-11T12:38:26.427Z,26.65
2018-09-11T12:39:26.430Z,26.74
2018-09-11T12:40:26.438Z,26.66
2018-09-11T12:41:26.439Z,26.66
2018-09-11T12:42:26.443Z,26.62
2018-09-11T12:43:26.451Z,26.53
2018-09-11T12:44:26.452Z,26.52
2018-09-11T12:45:26.454Z,26.51
2018-09-11T12:46:27.460Z,26.51
2018-09-11T12:47:26.810Z,26.59
2018-09-11T12:48:26.528Z,26.55
2018-09-11T12:49:27.212Z,26.45
2018-09-11T12:50:26.480Z,26.51
2018-09-11T12:51:27.285Z,26.52
2018-09-11T12:52:26.490Z,26.53